Sunday, December 16, 2018, 10:11 AM EST
Back to Local

KELM, Elmira County Airport

Location: Horseheads, NY, United States Lat: 42.167
Local Time: 10:11 AM EST (15:11 GMT) Lon: -76.9
Time Zone: US/Eastern Elev: 954 ft

Show me the last for .
Show Decoded

2018-12-16 09:53 METAR KELM 161453Z 00000KT 6SM HZ BKN014 OVC019 03/01 A3002 RMK AO2 RAE14 SLP175
                 P0000 60006 T00330006 56003 =
2018-12-16 08:53 METAR KELM 161353Z 00000KT 6SM -RA SCT019 BKN028 OVC044 03/00 A3002 RMK AO2
                 SLP175 P0002 T00280000 =
2018-12-16 08:42 METAR KELM 161342Z 00000KT 3SM -RA BR SCT017 BKN023 OVC043 02/01 A3003 RMK AO2
                 P0002 T00220006 =
2018-12-16 08:07 METAR KELM 161307Z 00000KT 2 1/2SM -RA BR OVC019 02/01 A3003 RMK AO2 P0001
                 T00220006 =
2018-12-16 07:53 METAR KELM 161253Z 36003KT 3SM -RA BR BKN020 OVC050 02/00 A3003 RMK AO2 SLP178
                 P0004 T00220000 =
2018-12-16 06:53 METAR KELM 161153Z 08005KT 4SM -RA BR OVC070 02/01 A3001 RMK AO2 RAB33 SLP169
                 P0000 60001 70001 T00220006 10022 20017 56019 =
2018-12-16 05:53 METAR KELM 161053Z 11003KT 4SM BR OVC075 02/01 A3003 RMK AO2 RAE13 SLP175 P0000
                 T00220006 =
2018-12-16 04:53 METAR KELM 160953Z AUTO 05007KT 4SM -RA BR BKN055 OVC075 02/00 A3002 RMK AO2
                 RAB42 SLP172 P0000 T00220000 =
2018-12-16 03:53 METAR KELM 160853Z AUTO 00000KT 5SM BR BKN060 BKN075 OVC090 02/01 A3007 RMK AO2
                 RAE02 SLP189 P0000 60001 T00220006 56014 =
2018-12-16 02:53 METAR KELM 160753Z AUTO 10004KT 5SM -RA BR OVC070 02/00 A3007 RMK AO2 RAB30
                 SLP192 P0001 T00220000 =
2018-12-16 01:53 METAR KELM 160653Z AUTO 06005KT 5SM BR OVC100 02/00 A3009 RMK AO2 SLP197
                 T00220000 =
2018-12-16 00:53 METAR KELM 160553Z AUTO 00000KT 5SM BR FEW012 02/00 A3011 RMK AO2 SLP202
                 T00220000 10033 20017 58021 =
2018-12-16 00:15 METAR KELM 160515Z AUTO 07005KT 5SM BR SCT012 02/00 A3011 RMK AO2 T00220000 =
2018-12-15 23:53 METAR KELM 160453Z AUTO 06006KT 5SM HZ BKN010 03/00 A3013 RMK AO2 CIG 009V014
                 SLP209 T00280000 400670022 =
2018-12-15 22:53 METAR KELM 160353Z 06007KT 5SM HZ BKN010 03/00 A3016 RMK AO2 SLP220 T00280000 =
2018-12-15 21:53 METAR KELM 160253Z 07005KT 5SM HZ CLR 03/00 A3017 RMK AO2 SLP225 T00280000 50004
                 =
2018-12-15 20:53 METAR KELM 160153Z 00000KT 5SM BR CLR 02/00 A3019 RMK AO2 SLP231 T00220000 =
2018-12-15 19:53 METAR KELM 160053Z 07005KT 6SM HZ FEW011 03/01 A3016 RMK AO2 SLP222 T00330006 =
2018-12-15 18:53 METAR KELM 152353Z 05008KT 5SM HZ CLR 03/01 A3016 RMK AO2 SLP220 T00330006 10061
                 20028 50011 =
2018-12-15 17:53 METAR KELM 152253Z 00000KT 5SM HZ CLR 04/01 A3017 RMK AO2 SLP223 T00390006 =
2018-12-15 16:53 METAR KELM 152153Z 36005KT 5SM HZ CLR 04/01 A3013 RMK AO2 SLP210 T00440011 =
2018-12-15 15:53 METAR KELM 152053Z 04006KT 3SM HZ CLR 05/01 A3012 RMK AO2 SLP208 T00500011 57015
                 =
2018-12-15 14:53 METAR KELM 151953Z 04009KT 4SM HZ CLR 06/01 A3014 RMK AO2 SLP215 T00560011 =
2018-12-15 13:53 METAR KELM 151853Z 04006KT 4SM HZ CLR 06/01 A3015 RMK AO2 SLP215 T00610011 =
2018-12-15 12:53 METAR KELM 151753Z 05003KT 4SM HZ FEW016 06/02 A3017 RMK AO2 SLP222 T00610022
                 10067 20028 55012 =
2018-12-15 12:23 METAR KELM 151723Z 05005KT 3SM HZ SCT011 SCT017 06/02 A3017 RMK AO2 T00610022 =
2018-12-15 11:53 METAR KELM 151653Z 02006KT 3SM HZ BKN010 06/02 A3017 RMK AO2 SLP221 T00560022 =
2018-12-15 10:53 METAR KELM 151553Z 00000KT 7SM CLR 06/03 A3019 RMK AO2 SLP228 T00610028 =

Support USWX by starting your Amazon purchase here.